sensor_id;sensor_type;location;lat;lon;timestamp;temperature;humidity
75380;HTU21D;65641;44.714;37.756;2023-03-01T00:00:41;6.64;81.84
75380;HTU21D;65641;44.714;37.756;2023-03-01T00:01:50;6.64;81.91
75380;HTU21D;65641;44.714;37.756;2023-03-01T00:03:14;6.63;81.91
75380;HTU21D;65641;44.714;37.756;2023-03-01T00:04:18;6.64;81.75
75380;HTU21D;65641;44.714;37.756;2023-03-01T00:05:22;6.63;81.77
75380;HTU21D;65641;44.714;37.756;2023-03-01T00:06:42;6.61;81.63
75380;HTU21D;65641;44.714;37.756;2023-03-01T00:07:53;6.59;81.76
75380;HTU21D;65641;44.714;37.756;2023-03-01T00:08:57;6.58;81.75
75380;HTU21D;65641;44.714;37.756;2023-03-01T00:10:21;6.58;81.90
75380;HTU21D;65641;44.714;37.756;2023-03-01T00:11:44;6.57;81.79
75380;HTU21D;65641;44.714;37.756;2023-03-01T00:12:49;6.56;81.93
75380;HTU21D;65641;44.714;37.756;2023-03-01T00:13:57;6.57;81.72
75380;HTU21D;65641;44.714;37.756;2023-03-01T00:15:00;6.55;81.67
75380;HTU21D;65641;44.714;37.756;2023-03-01T00:16:30;6.53;81.58
75380;HTU21D;65641;44.714;37.756;2023-03-01T00:17:39;6.53;81.69
75380;HTU21D;65641;44.714;37.756;2023-03-01T00:19:02;6.51;81.48
75380;HTU21D;65641;44.714;37.756;2023-03-01T00:20:26;6.48;81.54
75380;HTU21D;65641;44.714;37.756;2023-03-01T00:21:30;6.49;81.65
75380;HTU21D;65641;44.714;37.756;2023-03-01T00:22:54;6.49;81.62
75380;HTU21D;65641;44.714;37.756;2023-03-01T00:24:07;6.46;81.40
75380;HTU21D;65641;44.714;37.756;2023-03-01T00:25:31;6.44;81.29
75380;HTU21D;65641;44.714;37.756;2023-03-01T00:26:35;6.43;81.59
75380;HTU21D;65641;44.714;37.756;2023-03-01T00:27:42;6.45;81.57
75380;HTU21D;65641;44.714;37.756;2023-03-01T00:28:47;6.42;81.53
75380;HTU21D;65641;44.714;37.756;2023-03-01T00:30:10;6.42;81.37
75380;HTU21D;65641;44.714;37.756;2023-03-01T00:31:23;6.42;81.42
75380;HTU21D;65641;44.714;37.756;2023-03-01T00:32:27;6.41;81.40
75380;HTU21D;65641;44.714;37.756;2023-03-01T00:33:44;6.42;81.42
75380;HTU21D;65641;44.714;37.756;2023-03-01T00:34:49;6.41;81.32
75380;HTU21D;65641;44.714;37.756;2023-03-01T00:35:59;6.41;81.48
75380;HTU21D;65641;44.714;37.756;2023-03-01T00:37:03;6.40;81.28
75380;HTU21D;65641;44.714;37.756;2023-03-01T00:38:10;6.39;81.35
75380;HTU21D;65641;44.714;37.756;2023-03-01T00:39:24;6.39;81.31
75380;HTU21D;65641;44.714;37.756;2023-03-01T00:40:32;6.39;81.30
75380;HTU21D;65641;44.714;37.756;2023-03-01T00:41:44;6.40;81.39
75380;HTU21D;65641;44.714;37.756;2023-03-01T00:43:01;6.41;81.13
75380;HTU21D;65641;44.714;37.756;2023-03-01T00:44:11;6.39;81.15
75380;HTU21D;65641;44.714;37.756;2023-03-01T00:45:17;6.39;81.08
75380;HTU21D;65641;44.714;37.756;2023-03-01T00:46:40;6.38;81.09
75380;HTU21D;65641;44.714;37.756;2023-03-01T00:47:53;6.38;81.04
75380;HTU21D;65641;44.714;37.756;2023-03-01T00:49:06;6.38;81.01
75380;HTU21D;65641;44.714;37.756;2023-03-01T00:50:20;6.36;80.92
75380;HTU21D;65641;44.714;37.756;2023-03-01T00:51:26;6.36;80.98
75380;HTU21D;65641;44.714;37.756;2023-03-01T00:52:32;6.35;80.94
75380;HTU21D;65641;44.714;37.756;2023-03-01T00:53:45;6.35;80.92
75380;HTU21D;65641;44.714;37.756;2023-03-01T00:54:52;6.35;81.06
75380;HTU21D;65641;44.714;37.756;2023-03-01T00:55:57;6.37;80.96
75380;HTU21D;65641;44.714;37.756;2023-03-01T00:57:02;6.36;81.10
75380;HTU21D;65641;44.714;37.756;2023-03-01T00:58:06;6.38;80.94
75380;HTU21D;65641;44.714;37.756;2023-03-01T00:59:13;6.37;80.81
75380;HTU21D;65641;44.714;37.756;2023-03-01T01:00:19;6.37;80.88
75380;HTU21D;65641;44.714;37.756;2023-03-01T01:01:28;6.36;80.80
75380;HTU21D;65641;44.714;37.756;2023-03-01T01:02:35;6.37;80.89
75380;HTU21D;65641;44.714;37.756;2023-03-01T01:03:59;6.35;80.91
75380;HTU21D;65641;44.714;37.756;2023-03-01T01:05:05;6.34;80.78
75380;HTU21D;65641;44.714;37.756;2023-03-01T01:06:14;6.34;80.91
75380;HTU21D;65641;44.714;37.756;2023-03-01T01:07:18;6.33;80.92
75380;HTU21D;65641;44.714;37.756;2023-03-01T01:08:23;6.34;80.94
75380;HTU21D;65641;44.714;37.756;2023-03-01T01:09:28;6.33;80.94
75380;HTU21D;65641;44.714;37.756;2023-03-01T01:10:35;6.35;81.03
75380;HTU21D;65641;44.714;37.756;2023-03-01T01:11:40;6.35;80.80
75380;HTU21D;65641;44.714;37.756;2023-03-01T01:12:47;6.33;80.84
75380;HTU21D;65641;44.714;37.756;2023-03-01T01:13:51;6.33;80.75
75380;HTU21D;65641;44.714;37.756;2023-03-01T01:14:57;6.31;80.80
75380;HTU21D;65641;44.714;37.756;2023-03-01T01:16:03;6.29;80.75
75380;HTU21D;65641;44.714;37.756;2023-03-01T01:17:26;6.29;80.60
75380;HTU21D;65641;44.714;37.756;2023-03-01T01:18:37;6.27;80.64
75380;HTU21D;65641;44.714;37.756;2023-03-01T01:19:43;6.26;80.60
75380;HTU21D;65641;44.714;37.756;2023-03-01T01:20:55;6.26;80.70
75380;HTU21D;65641;44.714;37.756;2023-03-01T01:22:18;6.25;80.56
75380;HTU21D;65641;44.714;37.756;2023-03-01T01:23:44;6.24;80.69
75380;HTU21D;65641;44.714;37.756;2023-03-01T01:24:48;6.24;80.59
75380;HTU21D;65641;44.714;37.756;2023-03-01T01:25:57;6.22;80.53
75380;HTU21D;65641;44.714;37.756;2023-03-01T01:27:07;6.22;80.81
75380;HTU21D;65641;44.714;37.756;2023-03-01T01:28:17;6.22;80.59
75380;HTU21D;65641;44.714;37.756;2023-03-01T01:29:22;6.22;80.49
75380;HTU21D;65641;44.714;37.756;2023-03-01T01:30:27;6.20;80.66
75380;HTU21D;65641;44.714;37.756;2023-03-01T01:31:51;6.21;80.54
75380;HTU21D;65641;44.714;37.756;2023-03-01T01:33:15;6.21;80.68
75380;HTU21D;65641;44.714;37.756;2023-03-01T01:34:22;6.20;80.36
75380;HTU21D;65641;44.714;37.756;2023-03-01T01:35:27;6.21;80.38
75380;HTU21D;65641;44.714;37.756;2023-03-01T01:36:52;6.21;80.53
75380;HTU21D;65641;44.714;37.756;2023-03-01T01:38:02;6.19;80.27
75380;HTU21D;65641;44.714;37.756;2023-03-01T01:39:09;6.17;80.33
75380;HTU21D;65641;44.714;37.756;2023-03-01T01:40:17;6.19;80.30
75380;HTU21D;65641;44.714;37.756;2023-03-01T01:41:42;6.16;80.45
75380;HTU21D;65641;44.714;37.756;2023-03-01T01:42:49;6.17;80.42
75380;HTU21D;65641;44.714;37.756;2023-03-01T01:45:36;6.20;80.54
75380;HTU21D;65641;44.714;37.756;2023-03-01T01:47:17;6.22;80.28
75380;HTU21D;65641;44.714;37.756;2023-03-01T01:48:40;6.20;80.33
75380;HTU21D;65641;44.714;37.756;2023-03-01T01:50:10;6.19;80.19
75380;HTU21D;65641;44.714;37.756;2023-03-01T01:51:25;6.19;80.23
75380;HTU21D;65641;44.714;37.756;2023-03-01T01:52:35;6.16;80.17
75380;HTU21D;65641;44.714;37.756;2023-03-01T01:53:41;6.16;80.07
75380;HTU21D;65641;44.714;37.756;2023-03-01T01:54:50;6.16;80.16
75380;HTU21D;65641;44.714;37.756;2023-03-01T01:56:01;6.17;80.11
75380;HTU21D;65641;44.714;37.756;2023-03-01T01:57:35;6.17;80.08
75380;HTU21D;65641;44.714;37.756;2023-03-01T01:59:01;6.19;80.13
75380;HTU21D;65641;44.714;37.756;2023-03-01T02:00:27;6.20;80.11
75380;HTU21D;65641;44.714;37.756;2023-03-01T02:01:32;6.22;80.11
75380;HTU21D;65641;44.714;37.756;2023-03-01T02:02:37;6.21;80.09
75380;HTU21D;65641;44.714;37.756;2023-03-01T02:03:46;6.22;79.96
75380;HTU21D;65641;44.714;37.756;2023-03-01T02:05:00;6.23;79.96
75380;HTU21D;65641;44.714;37.756;2023-03-01T02:06:30;6.22;80.07
75380;HTU21D;65641;44.714;37.756;2023-03-01T02:07:38;6.24;79.93
75380;HTU21D;65641;44.714;37.756;2023-03-01T02:08:44;6.22;79.86
75380;HTU21D;65641;44.714;37.756;2023-03-01T02:09:52;6.22;79.91
75380;HTU21D;65641;44.714;37.756;2023-03-01T02:11:02;6.20;79.86
75380;HTU21D;65641;44.714;37.756;2023-03-01T02:12:10;6.20;79.99
75380;HTU21D;65641;44.714;37.756;2023-03-01T02:13:27;6.19;79.92
75380;HTU21D;65641;44.714;37.756;2023-03-01T02:14:51;6.19;79.95
75380;HTU21D;65641;44.714;37.756;2023-03-01T02:15:58;6.20;79.73
75380;HTU21D;65641;44.714;37.756;2023-03-01T02:17:02;6.19;79.88
75380;HTU21D;65641;44.714;37.756;2023-03-01T02:18:12;6.20;79.73
75380;HTU21D;65641;44.714;37.756;2023-03-01T02:19:53;6.20;79.46
75380;HTU21D;65641;44.714;37.756;2023-03-01T02:22:44;6.17;79.47
75380;HTU21D;65641;44.714;37.756;2023-03-01T02:23:50;6.16;79.43
75380;HTU21D;65641;44.714;37.756;2023-03-01T02:26:49;6.14;79.40
75380;HTU21D;65641;44.714;37.756;2023-03-01T02:29:18;6.14;79.30
75380;HTU21D;65641;44.714;37.756;2023-03-01T02:30:25;6.14;79.17
75380;HTU21D;65641;44.714;37.756;2023-03-01T02:31:30;6.13;79.20
75380;HTU21D;65641;44.714;37.756;2023-03-01T02:33:06;6.12;79.10
75380;HTU21D;65641;44.714;37.756;2023-03-01T02:34:19;6.13;79.08
75380;HTU21D;65641;44.714;37.756;2023-03-01T02:35:25;6.12;79.15
75380;HTU21D;65641;44.714;37.756;2023-03-01T02:36:38;6.12;79.21
75380;HTU21D;65641;44.714;37.756;2023-03-01T02:38:06;6.10;79.12
75380;HTU21D;65641;44.714;37.756;2023-03-01T02:39:17;6.11;78.92
75380;HTU21D;65641;44.714;37.756;2023-03-01T02:40:25;6.11;78.95
75380;HTU21D;65641;44.714;37.756;2023-03-01T02:41:38;6.11;78.95
75380;HTU21D;65641;44.714;37.756;2023-03-01T02:43:04;6.09;78.99
75380;HTU21D;65641;44.714;37.756;2023-03-01T02:44:10;6.09;78.87
75380;HTU21D;65641;44.714;37.756;2023-03-01T02:45:21;6.10;78.77
75380;HTU21D;65641;44.714;37.756;2023-03-01T02:46:51;6.09;78.80
75380;HTU21D;65641;44.714;37.756;2023-03-01T02:47:56;6.10;78.75
75380;HTU21D;65641;44.714;37.756;2023-03-01T02:53:56;6.10;78.74
75380;HTU21D;65641;44.714;37.756;2023-03-01T02:55:22;6.12;78.54
75380;HTU21D;65641;44.714;37.756;2023-03-01T02:56:28;6.12;78.50
75380;HTU21D;65641;44.714;37.756;2023-03-01T02:57:38;6.12;78.48
75380;HTU21D;65641;44.714;37.756;2023-03-01T02:58:43;6.14;78.38
75380;HTU21D;65641;44.714;37.756;2023-03-01T03:00:23;6.15;78.30
75380;HTU21D;65641;44.714;37.756;2023-03-01T03:01:50;6.15;78.28
75380;HTU21D;65641;44.714;37.756;2023-03-01T03:02:55;6.14;78.42
75380;HTU21D;65641;44.714;37.756;2023-03-01T03:04:09;6.15;78.25
75380;HTU21D;65641;44.714;37.756;2023-03-01T03:05:34;6.16;78.06
75380;HTU21D;65641;44.714;37.756;2023-03-01T03:06:45;6.15;78.00
75380;HTU21D;65641;44.714;37.756;2023-03-01T03:07:51;6.15;78.09
75380;HTU21D;65641;44.714;37.756;2023-03-01T03:09:08;6.16;78.00
75380;HTU21D;65641;44.714;37.756;2023-03-01T03:10:15;6.15;78.10
75380;HTU21D;65641;44.714;37.756;2023-03-01T03:11:22;6.15;78.12
75380;HTU21D;65641;44.714;37.756;2023-03-01T03:12:51;6.17;77.95
75380;HTU21D;65641;44.714;37.756;2023-03-01T03:13:56;6.17;77.96
75380;HTU21D;65641;44.714;37.756;2023-03-01T03:15:05;6.20;77.94
75380;HTU21D;65641;44.714;37.756;2023-03-01T03:16:14;6.19;77.83
75380;HTU21D;65641;44.714;37.756;2023-03-01T03:17:40;6.19;77.82
75380;HTU21D;65641;44.714;37.756;2023-03-01T03:18:47;6.20;77.81
75380;HTU21D;65641;44.714;37.756;2023-03-01T03:20:13;6.19;77.85
75380;HTU21D;65641;44.714;37.756;2023-03-01T03:21:41;6.21;77.71
75380;HTU21D;65641;44.714;37.756;2023-03-01T03:22:49;6.21;77.78
75380;HTU21D;65641;44.714;37.756;2023-03-01T03:23:54;6.22;77.67
75380;HTU21D;65641;44.714;37.756;2023-03-01T03:25:00;6.22;77.56
75380;HTU21D;65641;44.714;37.756;2023-03-01T03:26:05;6.22;77.60
75380;HTU21D;65641;44.714;37.756;2023-03-01T03:27:28;6.21;77.69
75380;HTU21D;65641;44.714;37.756;2023-03-01T03:28:52;6.21;77.50
75380;HTU21D;65641;44.714;37.756;2023-03-01T03:29:57;6.21;77.60
75380;HTU21D;65641;44.714;37.756;2023-03-01T03:31:01;6.21;77.49
75380;HTU21D;65641;44.714;37.756;2023-03-01T03:32:08;6.20;77.46
75380;HTU21D;65641;44.714;37.756;2023-03-01T03:33:13;6.20;77.28
75380;HTU21D;65641;44.714;37.756;2023-03-01T03:34:37;6.20;77.32
75380;HTU21D;65641;44.714;37.756;2023-03-01T03:35:44;6.19;77.31
75380;HTU21D;65641;44.714;37.756;2023-03-01T03:36:54;6.19;77.24
75380;HTU21D;65641;44.714;37.756;2023-03-01T03:38:05;6.16;77.40
75380;HTU21D;65641;44.714;37.756;2023-03-01T03:39:19;6.19;77.22
75380;HTU21D;65641;44.714;37.756;2023-03-01T03:40:24;6.17;77.32
75380;HTU21D;65641;44.714;37.756;2023-03-01T03:41:28;6.17;77.31
75380;HTU21D;65641;44.714;37.756;2023-03-01T03:42:33;6.16;77.22
75380;HTU21D;65641;44.714;37.756;2023-03-01T03:43:37;6.15;77.11
75380;HTU21D;65641;44.714;37.756;2023-03-01T03:44:42;6.17;76.94
75380;HTU21D;65641;44.714;37.756;2023-03-01T03:46:07;6.15;77.14
75380;HTU21D;65641;44.714;37.756;2023-03-01T03:47:11;6.15;77.20
75380;HTU21D;65641;44.714;37.756;2023-03-01T03:48:17;6.15;77.01
75380;HTU21D;65641;44.714;37.756;2023-03-01T03:49:41;6.13;77.17
75380;HTU21D;65641;44.714;37.756;2023-03-01T03:50:50;6.13;77.06
75380;HTU21D;65641;44.714;37.756;2023-03-01T03:51:54;6.13;77.14
75380;HTU21D;65641;44.714;37.756;2023-03-01T03:53:00;6.13;77.27
75380;HTU21D;65641;44.714;37.756;2023-03-01T03:54:24;6.14;77.08
75380;HTU21D;65641;44.714;37.756;2023-03-01T03:55:41;6.13;77.00
75380;HTU21D;65641;44.714;37.756;2023-03-01T03:57:04;6.12;77.08
75380;HTU21D;65641;44.714;37.756;2023-03-01T03:58:11;6.13;77.19
75380;HTU21D;65641;44.714;37.756;2023-03-01T03:59:16;6.13;77.16
75380;HTU21D;65641;44.714;37.756;2023-03-01T04:00:21;6.11;77.16
75380;HTU21D;65641;44.714;37.756;2023-03-01T04:01:28;6.11;77.08
75380;HTU21D;65641;44.714;37.756;2023-03-01T04:02:32;6.11;77.17
75380;HTU21D;65641;44.714;37.756;2023-03-01T04:03:56;6.10;77.21
75380;HTU21D;65641;44.714;37.756;2023-03-01T04:05:08;6.10;77.21
75380;HTU21D;65641;44.714;37.756;2023-03-01T04:06:32;6.09;77.11
75380;HTU21D;65641;44.714;37.756;2023-03-01T04:07:56;6.06;77.16
75380;HTU21D;65641;44.714;37.756;2023-03-01T04:09:11;6.07;77.20
75380;HTU21D;65641;44.714;37.756;2023-03-01T04:10:17;6.06;77.28
75380;HTU21D;65641;44.714;37.756;2023-03-01T04:11:22;6.06;77.21
75380;HTU21D;65641;44.714;37.756;2023-03-01T04:12:51;6.07;77.15
75380;HTU21D;65641;44.714;37.756;2023-03-01T04:14:23;6.06;77.07
75380;HTU21D;65641;44.714;37.756;2023-03-01T04:15:26;6.06;77.18
75380;HTU21D;65641;44.714;37.756;2023-03-01T04:16:50;6.05;77.27
75380;HTU21D;65641;44.714;37.756;2023-03-01T04:17:55;6.05;77.34
75380;HTU21D;65641;44.714;37.756;2023-03-01T04:19:00;6.05;77.21
75380;HTU21D;65641;44.714;37.756;2023-03-01T04:20:05;6.06;77.27
75380;HTU21D;65641;44.714;37.756;2023-03-01T04:21:11;6.07;77.27
75380;HTU21D;65641;44.714;37.756;2023-03-01T04:22:24;6.07;77.24
75380;HTU21D;65641;44.714;37.756;2023-03-01T04:23:52;6.08;77.22
75380;HTU21D;65641;44.714;37.756;2023-03-01T04:24:57;6.10;77.22
75380;HTU21D;65641;44.714;37.756;2023-03-01T04:26:21;6.11;77.08
75380;HTU21D;65641;44.714;37.756;2023-03-01T04:27:44;6.10;77.05
75380;HTU21D;65641;44.714;37.756;2023-03-01T04:28:49;6.11;77.02
75380;HTU21D;65641;44.714;37.756;2023-03-01T04:29:53;6.11;77.08
75380;HTU21D;65641;44.714;37.756;2023-03-01T04:30:58;6.13;76.95
75380;HTU21D;65641;44.714;37.756;2023-03-01T04:32:10;6.12;77.00
75380;HTU21D;65641;44.714;37.756;2023-03-01T04:33:13;6.13;76.95
75380;HTU21D;65641;44.714;37.756;2023-03-01T04:34:17;6.12;76.89
75380;HTU21D;65641;44.714;37.756;2023-03-01T04:35:21;6.13;76.86
75380;HTU21D;65641;44.714;37.756;2023-03-01T04:36:28;6.13;76.73
75380;HTU21D;65641;44.714;37.756;2023-03-01T04:37:34;6.13;76.97
75380;HTU21D;65641;44.714;37.756;2023-03-01T04:38:40;6.14;76.79
75380;HTU21D;65641;44.714;37.756;2023-03-01T04:40:04;6.15;76.71
75380;HTU21D;65641;44.714;37.756;2023-03-01T04:41:36;6.15;76.63
75380;HTU21D;65641;44.714;37.756;2023-03-01T04:42:42;6.16;76.63
75380;HTU21D;65641;44.714;37.756;2023-03-01T04:43:49;6.15;76.61
75380;HTU21D;65641;44.714;37.756;2023-03-01T04:44:54;6.15;76.56
75380;HTU21D;65641;44.714;37.756;2023-03-01T04:46:20;6.15;76.54
75380;HTU21D;65641;44.714;37.756;2023-03-01T04:47:33;6.15;76.67
75380;HTU21D;65641;44.714;37.756;2023-03-01T04:48:54;6.17;76.37
75380;HTU21D;65641;44.714;37.756;2023-03-01T04:49:58;6.17;76.30
75380;HTU21D;65641;44.714;37.756;2023-03-01T04:51:22;6.17;76.47
75380;HTU21D;65641;44.714;37.756;2023-03-01T04:52:46;6.19;76.49
75380;HTU21D;65641;44.714;37.756;2023-03-01T04:53:51;6.19;76.42
75380;HTU21D;65641;44.714;37.756;2023-03-01T04:55:15;6.19;76.48
75380;HTU21D;65641;44.714;37.756;2023-03-01T04:56:20;6.20;76.31
75380;HTU21D;65641;44.714;37.756;2023-03-01T04:57:26;6.20;76.37
75380;HTU21D;65641;44.714;37.756;2023-03-01T04:58:44;6.23;76.28
75380;HTU21D;65641;44.714;37.756;2023-03-01T04:59:47;6.21;76.15
75380;HTU21D;65641;44.714;37.756;2023-03-01T05:00:53;6.22;76.08
75380;HTU21D;65641;44.714;37.756;2023-03-01T05:01:58;6.22;76.20
75380;HTU21D;65641;44.714;37.756;2023-03-01T05:03:04;6.23;76.21
75380;HTU21D;65641;44.714;37.756;2023-03-01T05:04:27;6.23;76.18
75380;HTU21D;65641;44.714;37.756;2023-03-01T05:05:34;6.24;75.93
75380;HTU21D;65641;44.714;37.756;2023-03-01T05:06:51;6.25;75.92
75380;HTU21D;65641;44.714;37.756;2023-03-01T05:08:17;6.24;75.86
75380;HTU21D;65641;44.714;37.756;2023-03-01T05:09:26;6.25;75.87
75380;HTU21D;65641;44.714;37.756;2023-03-01T05:10:30;6.27;75.83
75380;HTU21D;65641;44.714;37.756;2023-03-01T05:11:37;6.25;75.79
75380;HTU21D;65641;44.714;37.756;2023-03-01T05:12:40;6.26;75.55
75380;HTU21D;65641;44.714;37.756;2023-03-01T05:14:05;6.26;75.70
75380;HTU21D;65641;44.714;37.756;2023-03-01T05:15:30;6.25;75.60
75380;HTU21D;65641;44.714;37.756;2023-03-01T05:16:34;6.26;75.70
75380;HTU21D;65641;44.714;37.756;2023-03-01T05:18:00;6.28;75.50
75380;HTU21D;65641;44.714;37.756;2023-03-01T05:19:03;6.26;75.47
75380;HTU21D;65641;44.714;37.756;2023-03-01T05:20:18;6.27;75.48
75380;HTU21D;65641;44.714;37.756;2023-03-01T05:21:31;6.28;75.41
75380;HTU21D;65641;44.714;37.756;2023-03-01T05:22:58;6.29;75.43
75380;HTU21D;65641;44.714;37.756;2023-03-01T05:24:17;6.28;75.37
75380;HTU21D;65641;44.714;37.756;2023-03-01T05:25:20;6.31;75.40
75380;HTU21D;65641;44.714;37.756;2023-03-01T05:26:25;6.31;75.41
75380;HTU21D;65641;44.714;37.756;2023-03-01T05:27:51;6.34;75.06
75380;HTU21D;65641;44.714;37.756;2023-03-01T05:28:58;6.38;75.16
75380;HTU21D;65641;44.714;37.756;2023-03-01T05:30:04;6.40;74.91
75380;HTU21D;65641;44.714;37.756;2023-03-01T05:31:33;6.42;75.07
75380;HTU21D;65641;44.714;37.756;2023-03-01T05:32:36;6.43;74.86
75380;HTU21D;65641;44.714;37.756;2023-03-01T05:33:40;6.45;74.78
75380;HTU21D;65641;44.714;37.756;2023-03-01T05:34:43;6.45;74.78
75380;HTU21D;65641;44.714;37.756;2023-03-01T05:36:09;6.46;74.73
75380;HTU21D;65641;44.714;37.756;2023-03-01T05:37:15;6.49;74.68
75380;HTU21D;65641;44.714;37.756;2023-03-01T05:38:20;6.51;74.69
75380;HTU21D;65641;44.714;37.756;2023-03-01T05:39:26;6.52;74.67
75380;HTU21D;65641;44.714;37.756;2023-03-01T05:40:49;6.55;74.53
75380;HTU21D;65641;44.714;37.756;2023-03-01T05:41:59;6.55;74.30
75380;HTU21D;65641;44.714;37.756;2023-03-01T05:43:02;6.57;74.37
75380;HTU21D;65641;44.714;37.756;2023-03-01T05:44:21;6.58;74.41
75380;HTU21D;65641;44.714;37.756;2023-03-01T05:45:27;6.59;74.25
75380;HTU21D;65641;44.714;37.756;2023-03-01T05:46:30;6.61;74.24
75380;HTU21D;65641;44.714;37.756;2023-03-01T05:47:34;6.65;74.22
75380;HTU21D;65641;44.714;37.756;2023-03-01T05:48:38;6.68;74.13
75380;HTU21D;65641;44.714;37.756;2023-03-01T05:49:41;6.73;73.87
75380;HTU21D;65641;44.714;37.756;2023-03-01T05:50:44;6.76;73.73
75380;HTU21D;65641;44.714;37.756;2023-03-01T05:51:50;6.81;73.80
75380;HTU21D;65641;44.714;37.756;2023-03-01T05:53:12;6.86;73.76
75380;HTU21D;65641;44.714;37.756;2023-03-01T05:54:36;6.94;73.63
75380;HTU21D;65641;44.714;37.756;2023-03-01T05:55:41;6.98;73.39
75380;HTU21D;65641;44.714;37.756;2023-03-01T05:56:45;6.98;73.32
75380;HTU21D;65641;44.714;37.756;2023-03-01T05:57:49;7.03;73.18
75380;HTU21D;65641;44.714;37.756;2023-03-01T05:58:52;7.08;72.90
75380;HTU21D;65641;44.714;37.756;2023-03-01T05:59:55;7.11;72.87
75380;HTU21D;65641;44.714;37.756;2023-03-01T06:00:58;7.14;72.64
75380;HTU21D;65641;44.714;37.756;2023-03-01T06:02:22;7.19;72.67
75380;HTU21D;65641;44.714;37.756;2023-03-01T06:03:27;7.23;72.70
75380;HTU21D;65641;44.714;37.756;2023-03-01T06:04:29;7.26;72.33
75380;HTU21D;65641;44.714;37.756;2023-03-01T06:05:57;7.29;72.38
75380;HTU21D;65641;44.714;37.756;2023-03-01T06:07:21;7.33;72.28
75380;HTU21D;65641;44.714;37.756;2023-03-01T06:08:24;7.37;72.06
75380;HTU21D;65641;44.714;37.756;2023-03-01T06:09:29;7.40;72.05
75380;HTU21D;65641;44.714;37.756;2023-03-01T06:10:32;7.41;71.85
75380;HTU21D;65641;44.714;37.756;2023-03-01T06:11:36;7.43;71.80
75380;HTU21D;65641;44.714;37.756;2023-03-01T06:12:45;7.45;71.70
75380;HTU21D;65641;44.714;37.756;2023-03-01T06:14:09;7.46;71.73
75380;HTU21D;65641;44.714;37.756;2023-03-01T06:15:33;7.48;71.47
75380;HTU21D;65641;44.714;37.756;2023-03-01T06:16:57;7.47;71.51
75380;HTU21D;65641;44.714;37.756;2023-03-01T06:18:02;7.48;71.72
75380;HTU21D;65641;44.714;37.756;2023-03-01T06:19:05;7.50;71.51
75380;HTU21D;65641;44.714;37.756;2023-03-01T06:20:22;7.52;71.58
75380;HTU21D;65641;44.714;37.756;2023-03-01T06:21:46;7.53;71.06
75380;HTU21D;65641;44.714;37.756;2023-03-01T06:22:54;7.55;71.49
75380;HTU21D;65641;44.714;37.756;2023-03-01T06:23:58;7.57;71.44
75380;HTU21D;65641;44.714;37.756;2023-03-01T06:25:04;7.60;71.64
75380;HTU21D;65641;44.714;37.756;2023-03-01T06:26:28;7.65;71.36
75380;HTU21D;65641;44.714;37.756;2023-03-01T06:27:34;7.68;71.00
75380;HTU21D;65641;44.714;37.756;2023-03-01T06:28:37;7.68;70.97
75380;HTU21D;65641;44.714;37.756;2023-03-01T06:29:42;7.72;71.15
75380;HTU21D;65641;44.714;37.756;2023-03-01T06:30:45;7.74;70.87
75380;HTU21D;65641;44.714;37.756;2023-03-01T06:31:49;7.78;70.72
75380;HTU21D;65641;44.714;37.756;2023-03-01T06:32:53;7.79;70.72
75380;HTU21D;65641;44.714;37.756;2023-03-01T06:34:04;7.82;70.78
75380;HTU21D;65641;44.714;37.756;2023-03-01T06:35:10;7.83;70.52
75380;HTU21D;65641;44.714;37.756;2023-03-01T06:36:18;7.84;70.39
75380;HTU21D;65641;44.714;37.756;2023-03-01T06:37:23;7.86;70.58
75380;HTU21D;65641;44.714;37.756;2023-03-01T06:38:26;7.88;70.38
75380;HTU21D;65641;44.714;37.756;2023-03-01T06:39:32;7.89;69.94
75380;HTU21D;65641;44.714;37.756;2023-03-01T06:40:36;7.89;69.94
75380;HTU21D;65641;44.714;37.756;2023-03-01T06:41:40;7.90;70.13
75380;HTU21D;65641;44.714;37.756;2023-03-01T06:42:48;7.94;70.23
75380;HTU21D;65641;44.714;37.756;2023-03-01T06:43:59;7.97;69.79
75380;HTU21D;65641;44.714;37.756;2023-03-01T06:45:03;7.99;69.92
75380;HTU21D;65641;44.714;37.756;2023-03-01T06:46:07;8.02;69.90
75380;HTU21D;65641;44.714;37.756;2023-03-01T06:47:12;8.02;69.61
75380;HTU21D;65641;44.714;37.756;2023-03-01T06:48:18;8.03;69.68
75380;HTU21D;65641;44.714;37.756;2023-03-01T06:49:22;8.05;69.62
75380;HTU21D;65641;44.714;37.756;2023-03-01T06:50:27;8.08;69.37
75380;HTU21D;65641;44.714;37.756;2023-03-01T06:51:31;8.09;69.36
75380;HTU21D;65641;44.714;37.756;2023-03-01T06:52:36;8.12;69.35
75380;HTU21D;65641;44.714;37.756;2023-03-01T06:53:39;8.12;69.07
75380;HTU21D;65641;44.714;37.756;2023-03-01T06:54:48;8.11;69.26
75380;HTU21D;65641;44.714;37.756;2023-03-01T06:55:55;8.08;69.30
75380;HTU21D;65641;44.714;37.756;2023-03-01T06:56:58;8.08;69.33
75380;HTU21D;65641;44.714;37.756;2023-03-01T06:58:03;8.08;69.34
75380;HTU21D;65641;44.714;37.756;2023-03-01T06:59:06;8.11;69.36
75380;HTU21D;65641;44.714;37.756;2023-03-01T07:00:11;8.13;69.16
75380;HTU21D;65641;44.714;37.756;2023-03-01T07:01:14;8.14;69.25
75380;HTU21D;65641;44.714;37.756;2023-03-01T07:02:17;8.14;69.13
75380;HTU21D;65641;44.714;37.756;2023-03-01T07:03:20;8.16;69.03
75380;HTU21D;65641;44.714;37.756;2023-03-01T07:04:27;8.19;68.56
75380;HTU21D;65641;44.714;37.756;2023-03-01T07:05:33;8.21;68.75
75380;HTU21D;65641;44.714;37.756;2023-03-01T07:06:38;8.24;68.83
75380;HTU21D;65641;44.714;37.756;2023-03-01T07:07:41;8.28;68.82
75380;HTU21D;65641;44.714;37.756;2023-03-01T07:08:46;8.27;68.71
75380;HTU21D;65641;44.714;37.756;2023-03-01T07:09:50;8.30;68.63
75380;HTU21D;65641;44.714;37.756;2023-03-01T07:10:57;8.31;68.57
75380;HTU21D;65641;44.714;37.756;2023-03-01T07:12:01;8.33;68.75
75380;HTU21D;65641;44.714;37.756;2023-03-01T07:13:05;8.36;68.52
75380;HTU21D;65641;44.714;37.756;2023-03-01T07:14:15;8.39;68.52
75380;HTU21D;65641;44.714;37.756;2023-03-01T07:15:18;8.39;68.50
75380;HTU21D;65641;44.714;37.756;2023-03-01T07:16:42;8.46;68.54
75380;HTU21D;65641;44.714;37.756;2023-03-01T07:17:46;8.47;68.32
75380;HTU21D;65641;44.714;37.756;2023-03-01T07:18:54;8.50;67.97
75380;HTU21D;65641;44.714;37.756;2023-03-01T07:20:01;8.53;68.25
75380;HTU21D;65641;44.714;37.756;2023-03-01T07:21:07;8.56;68.04
75380;HTU21D;65641;44.714;37.756;2023-03-01T07:22:11;8.62;67.88
75380;HTU21D;65641;44.714;37.756;2023-03-01T07:23:15;8.66;67.81
75380;HTU21D;65641;44.714;37.756;2023-03-01T07:24:20;8.73;67.76
75380;HTU21D;65641;44.714;37.756;2023-03-01T07:25:29;8.77;67.35
75380;HTU21D;65641;44.714;37.756;2023-03-01T07:26:34;8.82;67.23
75380;HTU21D;65641;44.714;37.756;2023-03-01T07:27:39;8.85;67.27
75380;HTU21D;65641;44.714;37.756;2023-03-01T07:28:43;8.86;66.97
75380;HTU21D;65641;44.714;37.756;2023-03-01T07:29:46;8.89;67.08
75380;HTU21D;65641;44.714;37.756;2023-03-01T07:30:50;8.92;67.09
75380;HTU21D;65641;44.714;37.756;2023-03-01T07:32:14;8.93;67.01
75380;HTU21D;65641;44.714;37.756;2023-03-01T07:33:20;8.96;66.77